Time;durP1;ratioP1;P1;durP2;ratioP2;P2;SDS_P1;SDS_P2;PMS_P1;PMS_P2;Temp;Humidity;BMP_temperature;BMP_pressure;BME280_temperature;BME280_humidity;BME280_pressure;Samples;Min_cycle;Max_cycle;Signal;HPM_P1;HPM_P2
2023/01/08 00:01:57;;;;;;;4.15;2.22;;;9.20;99.90;;;;;;12585981;28;20047;-85
2023/01/08 00:07:59;;;;;;;4.10;2.08;;;9.20;99.90;;;;;;12563872;28;20044;-85
2023/01/08 00:14:01;;;;;;;3.20;1.80;;;9.20;99.90;;;;;;12567410;28;20040;-85
2023/01/08 00:20:03;;;;;;;3.10;1.95;;;9.20;99.90;;;;;;12586995;28;20044;-85
2023/01/08 00:26:09;;;;;;;3.00;1.80;;;9.30;99.90;;;;;;12557612;28;20089;-85
2023/01/08 00:32:11;;;;;;;3.67;1.77;;;9.30;99.90;;;;;;12578061;28;20416;-85
2023/01/08 00:38:14;;;;;;;3.08;2.00;;;9.40;99.90;;;;;;12569464;28;20052;-85
2023/01/08 00:44:16;;;;;;;3.13;1.95;;;9.50;99.90;;;;;;12569759;28;20053;-85
2023/01/08 00:50:18;;;;;;;3.60;2.10;;;9.50;99.90;;;;;;12567197;28;20060;-85
2023/01/08 00:56:19;;;;;;;4.20;1.98;;;9.50;99.90;;;;;;12582569;28;20048;-85
2023/01/08 01:02:21;;;;;;;3.65;1.77;;;9.50;99.90;;;;;;12575157;28;21709;-85
2023/01/08 01:08:23;;;;;;;3.45;1.90;;;9.70;99.90;;;;;;12563193;28;20056;-85
2023/01/08 01:14:25;;;;;;;3.22;1.75;;;9.60;99.90;;;;;;12584575;28;20040;-85
2023/01/08 01:20:26;;;;;;;3.65;2.08;;;9.70;99.90;;;;;;12555166;28;20082;-84
2023/01/08 01:26:29;;;;;;;3.80;2.05;;;9.70;99.90;;;;;;12591041;28;20056;-85
2023/01/08 01:32:31;;;;;;;2.97;2.00;;;9.70;99.90;;;;;;12574915;28;20049;-84
2023/01/08 01:38:33;;;;;;;4.40;2.10;;;9.60;99.90;;;;;;12589506;28;20542;-84
2023/01/08 01:44:37;;;;;;;4.30;1.70;;;9.60;99.90;;;;;;12591954;28;20450;-85
2023/01/08 01:50:44;;;;;;;2.67;1.67;;;9.70;99.90;;;;;;12564821;28;20044;-85
2023/01/08 01:56:46;;;;;;;3.83;1.90;;;9.70;99.90;;;;;;12590673;28;20052;-85
2023/01/08 02:02:49;;;;;;;3.13;1.80;;;9.70;99.90;;;;;;12593578;28;20045;-85
2023/01/08 02:09:12;;;;;;;3.30;1.80;;;9.70;99.90;;;;;;12585102;28;20078;-85
2023/01/08 02:15:26;;;;;;;4.95;1.67;;;9.70;99.90;;;;;;12589441;28;20163;-85
2023/01/08 02:21:48;;;;;;;2.70;1.70;;;9.60;99.90;;;;;;12593375;28;20626;-85
2023/01/08 02:27:51;;;;;;;2.90;1.67;;;9.70;99.90;;;;;;12568648;28;20051;-85
2023/01/08 02:33:54;;;;;;;2.65;1.42;;;9.70;99.90;;;;;;12589390;28;20190;-85
2023/01/08 02:40:28;;;;;;;2.60;1.58;;;9.70;99.90;;;;;;12568131;28;20044;-85
2023/01/08 02:46:33;;;;;;;3.45;1.60;;;9.70;99.90;;;;;;12591075;28;20044;-85
2023/01/08 02:52:51;;;;;;;4.55;1.80;;;9.70;99.90;;;;;;12592378;28;20045;-85
2023/01/08 02:58:54;;;;;;;3.67;2.00;;;9.70;99.90;;;;;;12602697;28;20045;-85
2023/01/08 03:05:02;;;;;;;2.92;1.58;;;9.70;99.90;;;;;;12579128;28;20186;-85
2023/01/08 03:11:07;;;;;;;3.20;1.60;;;9.70;99.90;;;;;;12591436;28;20062;-84
2023/01/08 03:17:11;;;;;;;;;;;9.80;99.90;;;;;;12577777;28;20060;-85
2023/01/08 03:23:15;;;;;;;2.72;1.40;;;9.70;99.90;;;;;;12583689;28;19920;-85
2023/01/08 03:29:20;;;;;;;2.78;1.33;;;9.70;99.90;;;;;;12587090;28;20049;-86
2023/01/08 03:35:23;;;;;;;2.72;1.50;;;9.70;99.90;;;;;;12577669;28;20531;-85
2023/01/08 03:41:30;;;;;;;2.10;1.13;;;9.70;99.90;;;;;;12585358;28;20043;-84
2023/01/08 03:47:34;;;;;;;3.50;1.55;;;9.70;99.90;;;;;;12587593;28;20099;-85
2023/01/08 03:53:36;;;;;;;2.45;1.52;;;9.60;99.90;;;;;;12583458;28;20048;-85
2023/01/08 03:59:38;;;;;;;2.53;1.50;;;9.70;99.90;;;;;;12583042;28;20045;-85
2023/01/08 04:05:40;;;;;;;3.50;1.55;;;9.70;99.90;;;;;;12590068;28;20051;-85
2023/01/08 04:11:41;;;;;;;2.78;1.42;;;9.60;99.90;;;;;;12592929;28;20048;-85
2023/01/08 04:17:43;;;;;;;2.45;1.50;;;9.70;99.90;;;;;;12576908;28;20048;-85
2023/01/08 04:23:46;;;;;;;2.45;1.35;;;9.50;99.90;;;;;;12590247;28;20040;-85
2023/01/08 04:29:48;;;;;;;3.10;1.55;;;9.60;99.90;;;;;;12591474;28;20049;-85
2023/01/08 04:35:50;;;;;;;3.08;1.33;;;9.50;99.90;;;;;;12572399;28;20056;-85
2023/01/08 04:41:52;;;;;;;2.97;1.45;;;9.50;99.90;;;;;;12572056;28;20041;-85
2023/01/08 04:47:58;;;;;;;4.30;1.35;;;9.50;99.90;;;;;;12578854;28;20044;-85
2023/01/08 04:54:00;;;;;;;6.05;1.33;;;9.40;99.90;;;;;;12593112;28;20036;-85
2023/01/08 05:00:02;;;;;;;3.47;1.35;;;9.40;99.90;;;;;;12635668;28;20071;-86
2023/01/08 05:06:05;;;;;;;5.25;1.65;;;9.40;99.90;;;;;;12637332;28;20056;-85
2023/01/08 05:12:07;;;;;;;3.17;1.30;;;9.40;99.90;;;;;;12631696;28;20044;-85
2023/01/08 05:18:09;;;;;;;3.55;1.20;;;9.30;99.90;;;;;;12648719;28;20041;-86
2023/01/08 05:24:11;;;;;;;2.72;1.23;;;9.40;99.90;;;;;;12642715;28;20041;-86
2023/01/08 05:30:13;;;;;;;1.98;1.00;;;9.40;99.90;;;;;;12639367;28;20037;-85
2023/01/08 05:36:14;;;;;;;2.83;1.20;;;9.30;99.90;;;;;;12632456;28;20199;-85
2023/01/08 05:42:16;;;;;;;2.97;1.40;;;9.30;99.90;;;;;;12618204;28;20124;-85
2023/01/08 05:48:18;;;;;;;2.00;1.15;;;9.30;99.90;;;;;;12611624;28;20051;-85
2023/01/08 05:54:20;;;;;;;5.95;1.63;;;9.30;99.90;;;;;;12605076;28;20086;-85
2023/01/08 06:00:23;;;;;;;3.35;1.10;;;9.20;99.90;;;;;;12605165;28;20083;-85
2023/01/08 06:06:24;;;;;;;2.58;1.23;;;9.30;99.90;;;;;;12602002;28;20056;-85
2023/01/08 06:12:26;;;;;;;2.08;1.20;;;9.20;99.90;;;;;;12596898;28;20109;-85
2023/01/08 06:18:29;;;;;;;3.25;1.33;;;9.10;99.90;;;;;;12601133;28;20485;-85
2023/01/08 06:24:31;;;;;;;2.45;1.23;;;9.00;99.90;;;;;;12597026;28;20048;-85
2023/01/08 06:30:33;;;;;;;1.92;1.10;;;9.00;99.90;;;;;;12600304;28;20066;-85
2023/01/08 06:36:34;;;;;;;2.17;1.08;;;9.00;99.90;;;;;;12611808;28;20056;-85
2023/01/08 06:42:36;;;;;;;3.92;1.40;;;9.00;99.90;;;;;;12601425;28;20097;-85
2023/01/08 06:48:38;;;;;;;2.58;1.20;;;8.90;99.90;;;;;;12584439;28;20090;-85
2023/01/08 06:54:40;;;;;;;2.10;0.90;;;8.80;99.90;;;;;;12596457;28;20155;-84
2023/01/08 07:00:42;;;;;;;2.17;1.10;;;8.80;99.90;;;;;;12574198;28;20055;-85
2023/01/08 07:06:45;;;;;;;2.08;1.23;;;8.70;99.90;;;;;;12593641;28;20052;-84
2023/01/08 07:12:47;;;;;;;2.33;1.20;;;8.70;99.90;;;;;;12598271;28;20070;-85
2023/01/08 07:18:49;;;;;;;1.95;1.00;;;8.80;99.90;;;;;;12579839;28;20052;-85
2023/01/08 07:24:52;;;;;;;2.35;1.20;;;8.70;99.90;;;;;;12590361;28;20162;-85
2023/01/08 07:30:53;;;;;;;2.75;1.10;;;8.70;99.90;;;;;;12593581;28;20508;-85
2023/01/08 07:36:55;;;;;;;1.50;0.90;;;8.70;99.90;;;;;;12574907;28;20083;-85
2023/01/08 07:43:02;;;;;;;2.58;1.17;;;8.70;99.90;;;;;;12596159;28;20049;-87
2023/01/08 07:49:05;;;;;;;1.70;0.93;;;8.70;99.90;;;;;;12580710;28;20051;-86
2023/01/08 07:55:07;;;;;;;2.22;1.00;;;8.70;99.90;;;;;;12586473;28;20125;-86
2023/01/08 08:01:10;;;;;;;2.30;0.98;;;8.70;99.90;;;;;;12580925;28;20049;-86
2023/01/08 08:07:12;;;;;;;1.83;1.00;;;8.70;99.90;;;;;;12588809;28;20056;-86
2023/01/08 08:13:14;;;;;;;1.38;0.80;;;8.70;99.90;;;;;;12586390;28;20059;-85
2023/01/08 08:19:16;;;;;;;2.58;0.80;;;8.70;99.90;;;;;;12571949;28;20052;-86
2023/01/08 08:25:18;;;;;;;1.70;0.80;;;8.80;99.90;;;;;;12577457;28;20496;-86
2023/01/08 08:31:19;;;;;;;3.03;0.98;;;8.80;99.90;;;;;;12583852;28;20052;-86
2023/01/08 08:37:21;;;;;;;2.22;0.90;;;8.80;99.90;;;;;;12566546;28;20045;-86
2023/01/08 08:43:23;;;;;;;1.90;0.90;;;8.80;99.90;;;;;;12584350;28;20045;-85
2023/01/08 08:49:25;;;;;;;0.90;0.50;;;8.90;99.90;;;;;;12563556;28;20052;-87
2023/01/08 08:55:27;;;;;;;1.27;0.55;;;8.80;99.90;;;;;;12575638;28;20152;-86
2023/01/08 09:01:29;;;;;;;0.80;0.43;;;8.90;99.90;;;;;;12583162;28;20048;-86
2023/01/08 09:07:31;;;;;;;0.93;0.57;;;8.90;99.90;;;;;;12579725;28;20059;-86
2023/01/08 09:13:35;;;;;;;1.60;0.60;;;8.90;99.90;;;;;;12570001;28;20047;-86
2023/01/08 09:19:37;;;;;;;0.90;0.50;;;9.00;99.90;;;;;;12588043;28;20045;-86
2023/01/08 09:25:39;;;;;;;1.02;0.47;;;9.10;99.90;;;;;;12573351;28;20051;-87
2023/01/08 09:31:41;;;;;;;1.75;0.40;;;9.10;99.90;;;;;;12584814;28;20059;-87
2023/01/08 09:37:43;;;;;;;0.50;0.20;;;8.80;99.90;;;;;;12585952;28;20056;-87
2023/01/08 09:43:47;;;;;;;0.80;0.40;;;8.30;99.90;;;;;;12573589;28;20059;-87
2023/01/08 09:49:52;;;;;;;2.25;0.60;;;8.00;99.90;;;;;;12588530;28;20048;-87
2023/01/08 09:56:00;;;;;;;1.15;0.63;;;8.10;99.90;;;;;;12590133;28;20520;-87
2023/01/08 10:02:23;;;;;;;1.38;0.68;;;8.20;99.90;;;;;;12593643;28;20040;-87
2023/01/08 10:08:25;;;;;;;0.80;0.50;;;8.30;99.90;;;;;;12591106;28;20492;-87
2023/01/08 10:14:33;;;;;;;1.92;0.85;;;8.40;99.90;;;;;;12588950;28;20055;-87
2023/01/08 10:20:35;;;;;;;1.88;0.80;;;8.50;99.90;;;;;;12589928;28;20082;-87
2023/01/08 10:26:37;;;;;;;1.48;0.60;;;8.50;99.90;;;;;;12590449;28;20135;-86
2023/01/08 10:32:47;;;;;;;2.33;0.68;;;8.40;99.90;;;;;;12590008;28;20588;-87
2023/01/08 10:38:55;;;;;;;4.15;0.70;;;8.50;99.90;;;;;;12590992;28;20056;-87
2023/01/08 10:45:03;;;;;;;3.55;0.95;;;8.60;99.90;;;;;;12580133;28;20094;-86
2023/01/08 10:51:17;;;;;;;2.50;0.40;;;8.60;99.90;;;;;;12572912;28;20523;-87
2023/01/08 10:57:27;;;;;;;2.97;0.60;;;8.90;99.90;;;;;;12586482;28;20053;-87
2023/01/08 11:03:32;;;;;;;3.45;0.93;;;8.90;99.90;;;;;;12584699;28;20539;-87
2023/01/08 11:09:46;;;;;;;1.80;0.40;;;9.00;99.90;;;;;;12583148;28;20049;-87
2023/01/08 11:15:58;;;;;;;3.92;0.85;;;9.00;99.90;;;;;;12568995;28;20067;-87
2023/01/08 11:22:16;;;;;;;5.03;0.70;;;8.90;99.90;;;;;;12583990;28;20128;-87
2023/01/08 11:28:54;;;;;;;3.83;0.80;;;8.90;99.90;;;;;;12565235;28;20088;-86
2023/01/08 11:35:07;;;;;;;4.97;0.73;;;9.00;99.90;;;;;;12578077;28;20059;-87
2023/01/08 11:41:41;;;;;;;4.55;0.98;;;9.10;99.90;;;;;;12589319;28;20048;-87
2023/01/08 11:47:50;;;;;;;4.95;1.02;;;9.30;99.90;;;;;;12568557;28;20105;-86
2023/01/08 11:54:17;;;;;;;3.85;0.70;;;9.50;99.90;;;;;;12577295;28;20040;-87
2023/01/08 12:00:52;;;;;;;5.15;1.00;;;9.80;99.90;;;;;;12555326;28;20053;-87
2023/01/08 12:07:18;;;;;;;6.77;0.77;;;9.80;99.90;;;;;;12578834;28;20060;-86
2023/01/08 12:13:29;;;;;;;4.78;1.02;;;10.00;99.90;;;;;;12585756;28;20287;-86
2023/01/08 12:19:55;;;;;;;6.80;1.08;;;9.90;99.90;;;;;;12582815;28;20048;-86
2023/01/08 12:26:28;;;;;;;6.75;1.15;;;10.00;99.90;;;;;;12578432;28;20040;-86
2023/01/08 12:32:40;;;;;;;6.03;1.00;;;10.00;99.90;;;;;;12551535;28;20052;-86
2023/01/08 12:38:45;;;;;;;6.03;1.30;;;9.90;99.90;;;;;;12563305;28;20053;-87
2023/01/08 12:44:47;;;;;;;5.45;1.23;;;10.10;99.90;;;;;;12565755;28;20049;-87
2023/01/08 12:51:16;;;;;;;6.45;1.42;;;10.00;99.90;;;;;;12577794;28;20044;-86
2023/01/08 12:57:18;;;;;;;5.68;1.00;;;9.70;99.90;;;;;;12571087;28;20147;-86
2023/01/08 13:03:26;;;;;;;5.20;1.02;;;9.50;99.90;;;;;;12578662;28;20082;-87
2023/01/08 13:09:29;;;;;;;7.45;1.10;;;9.60;99.90;;;;;;12568386;28;20055;-87
2023/01/08 13:15:31;;;;;;;7.90;1.10;;;9.70;99.90;;;;;;12577280;28;20036;-87
2023/01/08 13:21:37;;;;;;;4.75;0.75;;;9.80;99.90;;;;;;12573188;28;20059;-86
2023/01/08 13:27:38;;;;;;;2.65;0.70;;;9.90;99.90;;;;;;12591091;28;20088;-87
2023/01/08 13:33:41;;;;;;;2.88;0.80;;;9.70;99.90;;;;;;12590787;28;20059;-87
2023/01/08 13:39:43;;;;;;;6.10;1.00;;;9.60;99.90;;;;;;12591662;28;20044;-86
2023/01/08 13:46:00;;;;;;;4.03;0.70;;;9.60;99.90;;;;;;12587619;28;20500;-86
2023/01/08 13:52:02;;;;;;;3.22;0.75;;;9.70;99.90;;;;;;12592696;28;20045;-86
2023/01/08 13:58:30;;;;;;;4.25;0.90;;;9.60;99.90;;;;;;12571693;28;20492;-86
2023/01/08 14:04:32;;;;;;;2.05;0.55;;;9.50;99.90;;;;;;12575698;28;20401;-86
2023/01/08 14:10:35;;;;;;;3.67;0.60;;;9.60;99.90;;;;;;12574131;28;20183;-87
2023/01/08 14:16:38;;;;;;;1.92;0.70;;;9.50;99.90;;;;;;12561025;28;20056;-86
2023/01/08 14:22:41;;;;;;;2.97;0.65;;;9.50;99.90;;;;;;12584106;28;20044;-87
2023/01/08 14:28:50;;;;;;;1.40;0.63;;;9.60;99.90;;;;;;12580378;28;20897;-86
2023/01/08 14:34:54;;;;;;;1.63;0.60;;;9.60;99.90;;;;;;12562501;28;20056;-86
2023/01/08 14:41:09;;;;;;;2.23;0.50;;;9.80;99.90;;;;;;12583638;28;20056;-86
2023/01/08 14:47:16;;;;;;;0.98;0.40;;;9.60;99.90;;;;;;12589885;28;20488;-85
2023/01/08 14:53:41;;;;;;;1.25;0.40;;;9.60;99.90;;;;;;12578564;28;20056;-86
2023/01/08 14:59:45;;;;;;;;;;;9.40;99.90;;;;;;12544183;28;20132;-86
2023/01/08 15:05:48;;;;;;;1.63;0.40;;;9.40;99.90;;;;;;12584834;28;19920;-86
2023/01/08 15:11:58;;;;;;;2.25;0.52;;;9.50;99.90;;;;;;12586603;28;20044;-86
2023/01/08 15:18:03;;;;;;;1.33;0.50;;;9.50;99.90;;;;;;12583749;28;20408;-86
2023/01/08 15:24:06;;;;;;;3.65;0.68;;;9.50;99.90;;;;;;12580059;28;20143;-85
2023/01/08 15:30:24;;;;;;;0.75;0.30;;;9.60;99.90;;;;;;12585973;28;20169;-85
2023/01/08 15:36:26;;;;;;;0.80;0.25;;;9.30;99.90;;;;;;12567506;28;20049;-85
2023/01/08 15:48:51;;;;;;;1.88;0.80;;;8.70;99.90;;;;;;12583765;28;20063;-85
2023/01/08 15:54:53;;;;;;;1.48;0.60;;;8.60;99.90;;;;;;12584559;28;20036;-85
2023/01/08 16:00:55;;;;;;;0.95;0.47;;;8.50;99.90;;;;;;12544402;28;20499;-85
2023/01/08 16:06:57;;;;;;;1.08;0.47;;;8.40;99.90;;;;;;12586209;28;20500;-84
2023/01/08 16:13:00;;;;;;;2.28;0.82;;;8.10;99.90;;;;;;12562728;28;20943;-85
2023/01/08 16:19:02;;;;;;;2.00;0.60;;;7.90;99.90;;;;;;12585373;28;20040;-85
2023/01/08 16:25:04;;;;;;;1.17;0.47;;;7.80;99.90;;;;;;12575832;28;20048;-85
2023/01/08 16:31:07;;;;;;;1.40;0.43;;;8.00;99.90;;;;;;12583709;28;20080;-85
2023/01/08 16:37:08;;;;;;;1.38;0.40;;;8.10;99.90;;;;;;12568543;28;20071;-84
2023/01/08 16:43:10;;;;;;;0.85;0.40;;;8.10;99.90;;;;;;12572729;28;20052;-84
2023/01/08 16:49:13;;;;;;;1.13;0.50;;;8.10;99.90;;;;;;12569462;28;20116;-84
2023/01/08 16:55:15;;;;;;;0.90;0.50;;;7.90;99.90;;;;;;12562291;28;20040;-84
2023/01/08 17:01:17;;;;;;;1.75;0.50;;;7.80;99.90;;;;;;12562463;28;20055;-84
2023/01/08 17:07:19;;;;;;;1.80;0.60;;;7.80;99.90;;;;;;12570845;28;20059;-84
2023/01/08 17:13:21;;;;;;;2.15;0.50;;;7.70;99.90;;;;;;12586962;28;20062;-85
2023/01/08 17:19:23;;;;;;;3.97;0.47;;;7.60;99.90;;;;;;12574552;28;20531;-84
2023/01/08 17:25:24;;;;;;;2.00;0.60;;;7.70;99.90;;;;;;12592050;28;20186;-84
2023/01/08 17:31:26;;;;;;;2.65;0.50;;;7.80;99.90;;;;;;12585517;28;20070;-84
2023/01/08 17:37:29;;;;;;;1.30;0.60;;;7.80;99.90;;;;;;12591214;28;20136;-84
2023/01/08 17:43:36;;;;;;;2.92;0.80;;;7.70;99.90;;;;;;12592199;28;20342;-84
2023/01/08 17:49:38;;;;;;;2.15;1.00;;;7.60;99.90;;;;;;12578565;28;20492;-84
2023/01/08 17:55:40;;;;;;;3.20;0.90;;;7.60;99.90;;;;;;12570460;28;20508;-85
2023/01/08 18:01:43;;;;;;;1.92;0.80;;;7.60;99.90;;;;;;12566853;28;20045;-85
2023/01/08 18:07:45;;;;;;;1.70;0.80;;;7.50;99.90;;;;;;12569815;28;20074;-84
2023/01/08 18:13:47;;;;;;;1.88;0.80;;;7.40;99.90;;;;;;12570717;28;20488;-85
2023/01/08 18:19:49;;;;;;;2.47;0.70;;;7.30;99.90;;;;;;12589906;28;20074;-84
2023/01/08 18:25:51;;;;;;;1.60;1.10;;;7.40;99.90;;;;;;12563376;28;20044;-85
2023/01/08 18:31:53;;;;;;;1.67;0.80;;;7.50;99.90;;;;;;12587076;28;20497;-84
2023/01/08 18:37:55;;;;;;;2.58;0.70;;;7.60;99.90;;;;;;12573908;28;20048;-84
2023/01/08 18:43:58;;;;;;;1.73;0.63;;;7.70;99.90;;;;;;12591111;28;20089;-85
2023/01/08 18:50:02;;;;;;;1.58;0.68;;;7.70;99.90;;;;;;12578361;28;20052;-84
2023/01/08 18:56:04;;;;;;;0.85;0.50;;;7.70;99.90;;;;;;12572245;28;20049;-85
2023/01/08 19:02:06;;;;;;;1.80;0.70;;;7.60;99.90;;;;;;12559047;28;20573;-85
2023/01/08 19:08:09;;;;;;;2.90;0.60;;;7.60;99.90;;;;;;12565819;28;20044;-85
2023/01/08 19:14:12;;;;;;;1.42;0.57;;;7.80;99.90;;;;;;12584946;28;20044;-84
2023/01/08 19:20:13;;;;;;;3.88;0.60;;;7.80;99.90;;;;;;12553146;28;20049;-85
2023/01/08 19:26:16;;;;;;;1.30;0.70;;;7.60;99.90;;;;;;12585041;28;20481;-85
2023/01/08 19:32:17;;;;;;;1.55;0.70;;;7.60;99.90;;;;;;12582297;28;20052;-84
2023/01/08 19:38:20;;;;;;;1.98;0.60;;;7.60;99.90;;;;;;12587161;28;20056;-85
2023/01/08 19:44:22;;;;;;;1.63;0.60;;;7.50;99.90;;;;;;12574898;28;20089;-85
2023/01/08 19:50:24;;;;;;;1.33;0.70;;;7.40;99.90;;;;;;12558235;28;20048;-84
2023/01/08 19:56:26;;;;;;;1.13;0.60;;;7.40;99.90;;;;;;12564186;28;20052;-85
2023/01/08 20:02:27;;;;;;;2.78;0.73;;;7.30;99.90;;;;;;12565228;28;20044;-84
2023/01/08 20:08:30;;;;;;;2.63;0.68;;;7.30;99.90;;;;;;12577268;28;20565;-84
2023/01/08 20:14:35;;;;;;;3.47;0.93;;;7.30;99.90;;;;;;12574748;28;20040;-84
2023/01/08 20:20:37;;;;;;;1.30;0.63;;;7.20;99.90;;;;;;12583849;28;20412;-85
2023/01/08 20:26:42;;;;;;;1.80;0.70;;;7.10;99.90;;;;;;12565836;28;20101;-85
2023/01/08 20:32:44;;;;;;;4.10;0.60;;;7.10;99.90;;;;;;12565981;28;20041;-85
2023/01/08 20:38:50;;;;;;;1.45;0.60;;;7.10;99.90;;;;;;12562629;28;20089;-84
2023/01/08 20:44:51;;;;;;;2.63;0.90;;;7.10;99.90;;;;;;12574564;28;20051;-84
2023/01/08 20:50:58;;;;;;;1.45;0.52;;;7.10;99.90;;;;;;12588026;28;20045;-84
2023/01/08 20:57:00;;;;;;;1.20;0.63;;;7.30;99.90;;;;;;12581268;28;20188;-85
2023/01/08 21:03:02;;;;;;;1.73;0.70;;;7.20;99.90;;;;;;12575098;28;20131;-84
2023/01/08 21:09:07;;;;;;;2.58;0.85;;;7.30;99.90;;;;;;12554529;28;20044;-84
2023/01/08 21:15:11;;;;;;;2.50;0.90;;;7.30;99.90;;;;;;12573164;28;20056;-84
2023/01/08 21:21:16;;;;;;;3.30;0.90;;;7.40;99.90;;;;;;12578723;28;20044;-84
2023/01/08 21:27:18;;;;;;;3.22;1.00;;;7.20;99.90;;;;;;12582229;28;20045;-84
2023/01/08 21:33:20;;;;;;;2.92;0.90;;;7.10;99.90;;;;;;12578741;28;20090;-84
2023/01/08 21:39:23;;;;;;;1.83;0.77;;;7.00;99.90;;;;;;12582644;28;20056;-84
2023/01/08 21:45:26;;;;;;;2.58;1.00;;;7.00;99.90;;;;;;12575493;28;20074;-84
2023/01/08 21:57:49;;;;;;;3.70;1.00;;;6.70;99.90;;;;;;12585327;28;20048;-84
2023/01/08 22:03:50;;;;;;;4.40;1.13;;;6.80;99.90;;;;;;12584489;28;20053;-84
2023/01/08 22:09:52;;;;;;;3.75;0.98;;;6.80;99.90;;;;;;12564233;28;20409;-84
2023/01/08 22:16:09;;;;;;;2.38;1.10;;;6.80;99.90;;;;;;12566742;28;20127;-84
2023/01/08 22:22:11;;;;;;;2.90;0.95;;;6.90;99.90;;;;;;12581593;28;20386;-84
2023/01/08 22:28:13;;;;;;;3.17;1.08;;;7.10;99.90;;;;;;12577523;28;20041;-84
2023/01/08 22:34:18;;;;;;;2.38;1.13;;;7.30;99.90;;;;;;12588638;28;20101;-84
2023/01/08 22:40:20;;;;;;;2.40;1.00;;;7.40;99.90;;;;;;12586250;28;20469;-84
2023/01/08 22:46:22;;;;;;;3.03;1.35;;;7.40;99.90;;;;;;12589136;28;20052;-84
2023/01/08 22:52:24;;;;;;;3.33;1.15;;;7.50;99.90;;;;;;12586023;28;20485;-84
2023/01/08 22:58:27;;;;;;;2.85;1.30;;;7.50;99.90;;;;;;12557431;28;20041;-84
2023/01/08 23:04:29;;;;;;;3.13;1.48;;;7.60;99.90;;;;;;12559976;28;20106;-84
2023/01/08 23:10:31;;;;;;;5.50;1.60;;;7.50;99.90;;;;;;12580264;28;20056;-84
2023/01/08 23:16:34;;;;;;;3.60;1.88;;;7.60;99.90;;;;;;12581573;28;20054;-84
2023/01/08 23:22:35;;;;;;;5.45;1.85;;;7.60;99.90;;;;;;12568859;28;20044;-84
2023/01/08 23:28:38;;;;;;;3.85;1.45;;;7.60;99.90;;;;;;12564477;28;20423;-84
2023/01/08 23:34:40;;;;;;;4.32;1.85;;;7.60;99.90;;;;;;12585080;28;20048;-84
2023/01/08 23:40:42;;;;;;;3.22;1.70;;;7.50;99.90;;;;;;12577968;28;20044;-84
2023/01/08 23:46:44;;;;;;;3.22;1.80;;;7.50;99.90;;;;;;12582788;28;20052;-84
2023/01/08 23:52:46;;;;;;;2.63;1.80;;;7.60;99.90;;;;;;12579287;28;20040;-84
2023/01/08 23:58:48;;;;;;;2.85;1.58;;;7.60;99.90;;;;;;12588345;28;20051;-84
